sensor_id;sensor_type;location;lat;lon;timestamp;pressure;altitude;pressure_sealevel;temperature;humidity
17855;BME280;9053;53.358;6.382;2023-02-26T00:02:03;101993.66;;;3.13;71.93
17855;BME280;9053;53.358;6.382;2023-02-26T00:04:33;101993.66;;;3.13;71.67
17855;BME280;9053;53.358;6.382;2023-02-26T00:07:03;101997.00;;;3.12;71.56
17855;BME280;9053;53.358;6.382;2023-02-26T00:09:33;101995.31;;;3.12;71.43
17855;BME280;9053;53.358;6.382;2023-02-26T00:12:08;101995.59;;;3.15;71.53
17855;BME280;9053;53.358;6.382;2023-02-26T00:14:39;102024.19;;;3.15;71.35
17855;BME280;9053;53.358;6.382;2023-02-26T00:20:36;102000.66;;;3.14;70.90
17855;BME280;9053;53.358;6.382;2023-02-26T00:23:10;102007.66;;;3.15;70.86
17855;BME280;9053;53.358;6.382;2023-02-26T00:25:40;102008.59;;;3.15;70.70
17855;BME280;9053;53.358;6.382;2023-02-26T00:28:14;102010.00;;;3.12;70.75
17855;BME280;9053;53.358;6.382;2023-02-26T00:30:44;102012.75;;;3.13;70.75
17855;BME280;9053;53.358;6.382;2023-02-26T00:33:15;102016.00;;;3.11;70.59
17855;BME280;9053;53.358;6.382;2023-02-26T00:35:46;102020.03;;;3.07;70.46
17855;BME280;9053;53.358;6.382;2023-02-26T00:38:22;102016.13;;;3.02;70.45
17855;BME280;9053;53.358;6.382;2023-02-26T00:40:52;102028.13;;;3.00;70.39
17855;BME280;9053;53.358;6.382;2023-02-26T00:43:25;102009.00;;;2.99;70.25
17855;BME280;9053;53.358;6.382;2023-02-26T00:46:02;102020.84;;;2.96;70.09
17855;BME280;9053;53.358;6.382;2023-02-26T00:48:46;102011.09;;;2.93;70.27
17855;BME280;9053;53.358;6.382;2023-02-26T00:51:28;102032.66;;;2.92;70.29
17855;BME280;9053;53.358;6.382;2023-02-26T00:54:04;102035.25;;;2.92;70.49
17855;BME280;9053;53.358;6.382;2023-02-26T00:56:37;102022.25;;;2.92;70.59
17855;BME280;9053;53.358;6.382;2023-02-26T00:59:09;102035.13;;;2.91;70.56
17855;BME280;9053;53.358;6.382;2023-02-26T01:01:39;102042.03;;;2.90;70.70
17855;BME280;9053;53.358;6.382;2023-02-26T01:04:10;102035.00;;;2.89;70.62
17855;BME280;9053;53.358;6.382;2023-02-26T01:06:43;102034.75;;;2.86;70.59
17855;BME280;9053;53.358;6.382;2023-02-26T01:09:17;102044.88;;;2.83;70.74
17855;BME280;9053;53.358;6.382;2023-02-26T01:11:50;102044.75;;;2.81;70.76
17855;BME280;9053;53.358;6.382;2023-02-26T01:14:23;102047.50;;;2.83;70.92
17855;BME280;9053;53.358;6.382;2023-02-26T01:16:58;102050.09;;;2.83;70.95
17855;BME280;9053;53.358;6.382;2023-02-26T01:19:37;102049.44;;;2.86;70.93
17855;BME280;9053;53.358;6.382;2023-02-26T01:22:14;102046.69;;;2.84;70.93
17855;BME280;9053;53.358;6.382;2023-02-26T01:24:46;102054.50;;;2.84;70.91
17855;BME280;9053;53.358;6.382;2023-02-26T01:27:17;102056.19;;;2.84;71.01
17855;BME280;9053;53.358;6.382;2023-02-26T01:29:50;102065.94;;;2.86;71.18
17855;BME280;9053;53.358;6.382;2023-02-26T01:32:24;102063.84;;;2.82;71.26
17855;BME280;9053;53.358;6.382;2023-02-26T01:34:59;102065.69;;;2.83;71.52
17855;BME280;9053;53.358;6.382;2023-02-26T01:37:38;102067.22;;;2.81;71.46
17855;BME280;9053;53.358;6.382;2023-02-26T01:40:28;102064.78;;;2.83;71.61
17855;BME280;9053;53.358;6.382;2023-02-26T01:43:06;102075.53;;;2.87;71.83
17855;BME280;9053;53.358;6.382;2023-02-26T01:45:51;102081.78;;;2.89;71.97
17855;BME280;9053;53.358;6.382;2023-02-26T01:48:35;102066.97;;;2.88;71.99
17855;BME280;9053;53.358;6.382;2023-02-26T01:51:05;102081.78;;;2.89;72.23
17855;BME280;9053;53.358;6.382;2023-02-26T01:53:35;102079.56;;;2.94;72.14
17855;BME280;9053;53.358;6.382;2023-02-26T01:56:10;102090.75;;;2.93;72.13
17855;BME280;9053;53.358;6.382;2023-02-26T01:58:43;102092.16;;;2.89;71.89
17855;BME280;9053;53.358;6.382;2023-02-26T02:01:17;102090.38;;;2.88;71.80
17855;BME280;9053;53.358;6.382;2023-02-26T02:03:47;102083.06;;;2.84;71.54
17855;BME280;9053;53.358;6.382;2023-02-26T02:06:20;102097.09;;;2.86;71.43
17855;BME280;9053;53.358;6.382;2023-02-26T02:08:52;102112.94;;;2.79;71.26
17855;BME280;9053;53.358;6.382;2023-02-26T02:11:22;102101.41;;;2.75;71.16
17855;BME280;9053;53.358;6.382;2023-02-26T02:14:03;102101.91;;;2.71;70.97
17855;BME280;9053;53.358;6.382;2023-02-26T02:16:46;102109.59;;;2.70;70.97
17855;BME280;9053;53.358;6.382;2023-02-26T02:19:32;102109.31;;;2.67;71.13
17855;BME280;9053;53.358;6.382;2023-02-26T02:22:22;102116.84;;;2.64;70.96
17855;BME280;9053;53.358;6.382;2023-02-26T02:25:11;102115.78;;;2.62;71.15
17855;BME280;9053;53.358;6.382;2023-02-26T02:27:53;102121.78;;;2.60;71.10
17855;BME280;9053;53.358;6.382;2023-02-26T02:30:32;102120.72;;;2.58;71.13
17855;BME280;9053;53.358;6.382;2023-02-26T02:33:12;102123.19;;;2.57;71.34
17855;BME280;9053;53.358;6.382;2023-02-26T02:35:47;102126.56;;;2.56;71.48
17855;BME280;9053;53.358;6.382;2023-02-26T02:38:22;102125.66;;;2.55;71.43
17855;BME280;9053;53.358;6.382;2023-02-26T02:40:57;102132.56;;;2.55;71.38
17855;BME280;9053;53.358;6.382;2023-02-26T02:43:32;102129.03;;;2.54;71.33
17855;BME280;9053;53.358;6.382;2023-02-26T02:46:04;102124.47;;;2.52;71.25
17855;BME280;9053;53.358;6.382;2023-02-26T02:48:40;102138.25;;;2.51;71.34
17855;BME280;9053;53.358;6.382;2023-02-26T02:51:16;102149.44;;;2.50;71.20
17855;BME280;9053;53.358;6.382;2023-02-26T02:53:51;102135.50;;;2.49;71.22
17855;BME280;9053;53.358;6.382;2023-02-26T02:56:24;102143.19;;;2.48;71.23
17855;BME280;9053;53.358;6.382;2023-02-26T02:58:58;102149.13;;;2.47;71.28
17855;BME280;9053;53.358;6.382;2023-02-26T03:01:32;102155.38;;;2.49;71.24
17855;BME280;9053;53.358;6.382;2023-02-26T03:04:08;102154.72;;;2.51;71.37
17855;BME280;9053;53.358;6.382;2023-02-26T03:06:39;102155.63;;;2.52;71.29
17855;BME280;9053;53.358;6.382;2023-02-26T03:09:09;102155.78;;;2.53;71.11
17855;BME280;9053;53.358;6.382;2023-02-26T03:11:39;102157.47;;;2.53;71.09
17855;BME280;9053;53.358;6.382;2023-02-26T03:14:10;102159.94;;;2.51;71.20
17855;BME280;9053;53.358;6.382;2023-02-26T03:16:55;102167.88;;;2.53;71.30
17855;BME280;9053;53.358;6.382;2023-02-26T03:19:37;102166.16;;;2.53;71.40
17855;BME280;9053;53.358;6.382;2023-02-26T03:22:13;102170.56;;;2.54;71.44
17855;BME280;9053;53.358;6.382;2023-02-26T03:24:49;102172.28;;;2.54;71.49
17855;BME280;9053;53.358;6.382;2023-02-26T03:27:23;102179.31;;;2.55;71.67
17855;BME280;9053;53.358;6.382;2023-02-26T03:29:59;102184.63;;;2.56;71.85
17855;BME280;9053;53.358;6.382;2023-02-26T03:32:33;102190.72;;;2.57;72.02
17855;BME280;9053;53.358;6.382;2023-02-26T03:35:13;102199.56;;;2.59;72.25
17855;BME280;9053;53.358;6.382;2023-02-26T03:37:45;102202.28;;;2.60;72.24
17855;BME280;9053;53.358;6.382;2023-02-26T03:40:19;102212.69;;;2.60;72.27
17855;BME280;9053;53.358;6.382;2023-02-26T03:42:54;102207.34;;;2.59;72.40
17855;BME280;9053;53.358;6.382;2023-02-26T03:45:29;102215.13;;;2.59;72.70
17855;BME280;9053;53.358;6.382;2023-02-26T03:48:01;102215.78;;;2.56;72.61
17855;BME280;9053;53.358;6.382;2023-02-26T03:50:38;102221.63;;;2.54;72.68
17855;BME280;9053;53.358;6.382;2023-02-26T03:53:14;102238.75;;;2.52;72.96
17855;BME280;9053;53.358;6.382;2023-02-26T03:55:48;102233.44;;;2.50;72.99
17855;BME280;9053;53.358;6.382;2023-02-26T03:58:19;102244.56;;;2.49;73.09
17855;BME280;9053;53.358;6.382;2023-02-26T04:00:53;102248.13;;;2.50;73.04
17855;BME280;9053;53.358;6.382;2023-02-26T04:03:29;102240.31;;;2.50;72.83
17855;BME280;9053;53.358;6.382;2023-02-26T04:06:05;102243.56;;;2.47;73.02
17855;BME280;9053;53.358;6.382;2023-02-26T04:08:35;102244.84;;;2.42;73.02
17855;BME280;9053;53.358;6.382;2023-02-26T04:11:08;102240.28;;;2.40;73.15
17855;BME280;9053;53.358;6.382;2023-02-26T04:13:39;102243.53;;;2.37;73.13
17855;BME280;9053;53.358;6.382;2023-02-26T04:16:09;102254.81;;;2.37;73.19
17855;BME280;9053;53.358;6.382;2023-02-26T04:18:39;102251.94;;;2.34;73.25
17855;BME280;9053;53.358;6.382;2023-02-26T04:21:13;102264.13;;;2.35;73.55
17855;BME280;9053;53.358;6.382;2023-02-26T04:23:44;102266.59;;;2.34;73.59
17855;BME280;9053;53.358;6.382;2023-02-26T04:26:13;102273.34;;;2.32;73.62
17855;BME280;9053;53.358;6.382;2023-02-26T04:28:43;102283.59;;;2.30;73.75
17855;BME280;9053;53.358;6.382;2023-02-26T04:31:13;102275.66;;;2.29;73.92
17855;BME280;9053;53.358;6.382;2023-02-26T04:33:43;102283.44;;;2.29;73.89
17855;BME280;9053;53.358;6.382;2023-02-26T04:36:16;102282.69;;;2.30;73.89
17855;BME280;9053;53.358;6.382;2023-02-26T04:38:45;102286.97;;;2.29;73.98
17855;BME280;9053;53.358;6.382;2023-02-26T04:41:15;102289.56;;;2.29;73.99
17855;BME280;9053;53.358;6.382;2023-02-26T04:43:45;102289.56;;;2.29;74.01
17855;BME280;9053;53.358;6.382;2023-02-26T04:46:15;102293.19;;;2.31;74.02
17855;BME280;9053;53.358;6.382;2023-02-26T04:48:45;102300.84;;;2.30;73.83
17855;BME280;9053;53.358;6.382;2023-02-26T04:51:17;102286.34;;;2.32;73.90
17855;BME280;9053;53.358;6.382;2023-02-26T04:53:47;102308.66;;;2.30;74.02
17855;BME280;9053;53.358;6.382;2023-02-26T04:56:17;102309.41;;;2.29;73.99
17855;BME280;9053;53.358;6.382;2023-02-26T04:58:47;102305.00;;;2.28;74.12
17855;BME280;9053;53.358;6.382;2023-02-26T05:01:17;102310.19;;;2.28;74.01
17855;BME280;9053;53.358;6.382;2023-02-26T05:03:47;102312.94;;;2.29;73.99
17855;BME280;9053;53.358;6.382;2023-02-26T05:06:20;102315.66;;;2.31;74.07
17855;BME280;9053;53.358;6.382;2023-02-26T05:08:50;102314.59;;;2.29;74.22
17855;BME280;9053;53.358;6.382;2023-02-26T05:11:20;102321.47;;;2.28;74.12
17855;BME280;9053;53.358;6.382;2023-02-26T05:13:49;102320.41;;;2.26;74.23
17855;BME280;9053;53.358;6.382;2023-02-26T05:16:19;102323.66;;;2.24;74.31
17855;BME280;9053;53.358;6.382;2023-02-26T05:18:49;102326.25;;;2.24;74.37
17855;BME280;9053;53.358;6.382;2023-02-26T05:21:22;102332.97;;;2.22;74.60
17855;BME280;9053;53.358;6.382;2023-02-26T05:23:52;102332.69;;;2.19;74.64
17855;BME280;9053;53.358;6.382;2023-02-26T05:26:22;102333.50;;;2.17;74.86
17855;BME280;9053;53.358;6.382;2023-02-26T05:28:52;102337.78;;;2.17;75.03
17855;BME280;9053;53.358;6.382;2023-02-26T05:31:22;102346.47;;;2.17;75.16
17855;BME280;9053;53.358;6.382;2023-02-26T05:33:53;102345.56;;;2.17;75.12
17855;BME280;9053;53.358;6.382;2023-02-26T05:36:25;102349.81;;;2.16;75.19
17855;BME280;9053;53.358;6.382;2023-02-26T05:38:55;102358.22;;;2.14;75.34
17855;BME280;9053;53.358;6.382;2023-02-26T05:41:25;102351.22;;;2.13;75.45
17855;BME280;9053;53.358;6.382;2023-02-26T05:43:54;102349.53;;;2.13;75.46
17855;BME280;9053;53.358;6.382;2023-02-26T05:46:25;102369.56;;;2.14;75.65
17855;BME280;9053;53.358;6.382;2023-02-26T05:48:55;102369.69;;;2.16;75.76
17855;BME280;9053;53.358;6.382;2023-02-26T05:51:27;102373.06;;;2.15;75.80
17855;BME280;9053;53.358;6.382;2023-02-26T05:53:57;102365.28;;;2.15;75.80
17855;BME280;9053;53.358;6.382;2023-02-26T05:56:27;102368.78;;;2.15;75.93
17855;BME280;9053;53.358;6.382;2023-02-26T05:58:56;102364.47;;;2.16;75.90
17855;BME280;9053;53.358;6.382;2023-02-26T06:01:26;102372.53;;;2.19;75.99
17855;BME280;9053;53.358;6.382;2023-02-26T06:03:56;102376.97;;;2.20;76.07
17855;BME280;9053;53.358;6.382;2023-02-26T06:06:29;102383.09;;;2.21;76.28
17855;BME280;9053;53.358;6.382;2023-02-26T06:08:59;102380.97;;;2.16;76.34
17855;BME280;9053;53.358;6.382;2023-02-26T06:11:29;102390.59;;;2.17;76.36
17855;BME280;9053;53.358;6.382;2023-02-26T06:14:00;102388.75;;;2.16;76.38
17855;BME280;9053;53.358;6.382;2023-02-26T06:16:30;102391.50;;;2.18;76.47
17855;BME280;9053;53.358;6.382;2023-02-26T06:19:01;102389.69;;;2.17;76.68
17855;BME280;9053;53.358;6.382;2023-02-26T06:21:34;102399.75;;;2.14;76.69
17855;BME280;9053;53.358;6.382;2023-02-26T06:24:05;102405.91;;;2.14;76.90
17855;BME280;9053;53.358;6.382;2023-02-26T06:26:35;102408.59;;;2.16;77.01
17855;BME280;9053;53.358;6.382;2023-02-26T06:29:05;102401.88;;;2.18;77.00
17855;BME280;9053;53.358;6.382;2023-02-26T06:31:34;102412.06;;;2.25;77.30
17855;BME280;9053;53.358;6.382;2023-02-26T06:34:04;102416.47;;;2.26;77.50
17855;BME280;9053;53.358;6.382;2023-02-26T06:36:37;102416.63;;;2.28;77.41
17855;BME280;9053;53.358;6.382;2023-02-26T06:39:07;102417.38;;;2.27;77.52
17855;BME280;9053;53.358;6.382;2023-02-26T06:41:38;102429.88;;;2.31;77.71
17855;BME280;9053;53.358;6.382;2023-02-26T06:44:08;102424.84;;;2.32;77.68
17855;BME280;9053;53.358;6.382;2023-02-26T06:46:38;102433.38;;;2.31;77.91
17855;BME280;9053;53.358;6.382;2023-02-26T06:49:08;102430.16;;;2.34;78.03
17855;BME280;9053;53.358;6.382;2023-02-26T06:51:41;102441.88;;;2.39;78.13
17855;BME280;9053;53.358;6.382;2023-02-26T06:54:11;102438.66;;;2.42;78.26
17855;BME280;9053;53.358;6.382;2023-02-26T06:56:41;102441.41;;;2.43;78.24
17855;BME280;9053;53.358;6.382;2023-02-26T06:59:10;102445.81;;;2.44;78.39
17855;BME280;9053;53.358;6.382;2023-02-26T07:01:41;102441.69;;;2.46;78.41
17855;BME280;9053;53.358;6.382;2023-02-26T07:04:11;102452.34;;;2.49;78.47
17855;BME280;9053;53.358;6.382;2023-02-26T07:06:43;102449.13;;;2.52;78.72
17855;BME280;9053;53.358;6.382;2023-02-26T07:09:13;102459.66;;;2.53;78.69
17855;BME280;9053;53.358;6.382;2023-02-26T07:11:45;102461.34;;;2.53;78.91
17855;BME280;9053;53.358;6.382;2023-02-26T07:14:18;102456.28;;;2.54;78.92
17855;BME280;9053;53.358;6.382;2023-02-26T07:16:48;102465.00;;;2.55;78.99
17855;BME280;9053;53.358;6.382;2023-02-26T07:19:18;102466.66;;;2.54;79.07
17855;BME280;9053;53.358;6.382;2023-02-26T07:21:50;102470.31;;;2.56;79.22
17855;BME280;9053;53.358;6.382;2023-02-26T07:24:20;102473.97;;;2.58;79.40
17855;BME280;9053;53.358;6.382;2023-02-26T07:26:51;102480.97;;;2.59;79.43
17855;BME280;9053;53.358;6.382;2023-02-26T07:29:21;102487.13;;;2.60;79.55
17855;BME280;9053;53.358;6.382;2023-02-26T07:31:51;102476.84;;;2.62;79.59
17855;BME280;9053;53.358;6.382;2023-02-26T07:34:21;102488.47;;;2.65;79.81
17855;BME280;9053;53.358;6.382;2023-02-26T07:36:54;102489.78;;;2.70;79.82
17855;BME280;9053;53.358;6.382;2023-02-26T07:39:25;102487.31;;;2.72;79.95
17855;BME280;9053;53.358;6.382;2023-02-26T07:41:55;102491.25;;;2.77;80.10
17855;BME280;9053;53.358;6.382;2023-02-26T07:44:25;102490.91;;;2.83;80.21
17855;BME280;9053;53.358;6.382;2023-02-26T07:46:54;102483.81;;;2.90;80.17
17855;BME280;9053;53.358;6.382;2023-02-26T07:49:24;102489.56;;;2.96;80.45
17855;BME280;9053;53.358;6.382;2023-02-26T07:51:57;102500.78;;;3.06;80.33
17855;BME280;9053;53.358;6.382;2023-02-26T07:54:27;102501.59;;;3.15;80.29
17855;BME280;9053;53.358;6.382;2023-02-26T07:56:56;102506.75;;;3.23;80.26
17855;BME280;9053;53.358;6.382;2023-02-26T07:59:27;102512.88;;;3.34;80.09
17855;BME280;9053;53.358;6.382;2023-02-26T08:01:56;102510.84;;;3.40;80.02
17855;BME280;9053;53.358;6.382;2023-02-26T08:04:26;102512.28;;;3.47;79.60
17855;BME280;9053;53.358;6.382;2023-02-26T08:07:01;102520.78;;;3.55;79.53
17855;BME280;9053;53.358;6.382;2023-02-26T08:09:31;102510.63;;;3.58;79.22
17855;BME280;9053;53.358;6.382;2023-02-26T08:12:01;102520.06;;;3.66;79.04
17855;BME280;9053;53.358;6.382;2023-02-26T08:14:32;102523.97;;;3.71;78.95
17855;BME280;9053;53.358;6.382;2023-02-26T08:17:02;102531.41;;;3.77;78.71
17855;BME280;9053;53.358;6.382;2023-02-26T08:19:32;102539.09;;;3.85;78.59
17855;BME280;9053;53.358;6.382;2023-02-26T08:22:05;102534.59;;;3.93;78.52
17855;BME280;9053;53.358;6.382;2023-02-26T08:24:35;102537.97;;;4.02;78.46
17855;BME280;9053;53.358;6.382;2023-02-26T08:27:05;102547.25;;;4.09;78.55
17855;BME280;9053;53.358;6.382;2023-02-26T08:29:36;102547.91;;;4.17;78.33
17855;BME280;9053;53.358;6.382;2023-02-26T08:32:05;102552.72;;;4.22;78.26
17855;BME280;9053;53.358;6.382;2023-02-26T08:34:35;102548.06;;;4.28;77.97
17855;BME280;9053;53.358;6.382;2023-02-26T08:37:08;102548.59;;;4.34;77.81
17855;BME280;9053;53.358;6.382;2023-02-26T08:39:38;102559.81;;;4.44;77.84
17855;BME280;9053;53.358;6.382;2023-02-26T08:42:08;102561.22;;;4.50;77.74
17855;BME280;9053;53.358;6.382;2023-02-26T08:44:42;102568.03;;;4.59;77.47
17855;BME280;9053;53.358;6.382;2023-02-26T08:47:12;102564.47;;;4.68;77.35
17855;BME280;9053;53.358;6.382;2023-02-26T08:49:53;102574.16;;;4.80;77.25
17855;BME280;9053;53.358;6.382;2023-02-26T08:52:27;102564.47;;;4.89;77.40
17855;BME280;9053;53.358;6.382;2023-02-26T08:54:57;102574.78;;;4.97;77.27
17855;BME280;9053;53.358;6.382;2023-02-26T08:57:26;102567.34;;;5.02;77.05
17855;BME280;9053;53.358;6.382;2023-02-26T08:59:57;102574.50;;;5.15;76.91
17855;BME280;9053;53.358;6.382;2023-02-26T09:02:30;102574.59;;;5.16;76.75
17855;BME280;9053;53.358;6.382;2023-02-26T09:05:00;102580.34;;;5.23;76.71
17855;BME280;9053;53.358;6.382;2023-02-26T09:07:33;102595.72;;;5.30;76.52
17855;BME280;9053;53.358;6.382;2023-02-26T09:10:03;102585.28;;;5.30;76.46
17855;BME280;9053;53.358;6.382;2023-02-26T09:12:33;102593.88;;;5.29;76.31
17855;BME280;9053;53.358;6.382;2023-02-26T09:15:10;102593.13;;;5.30;76.26
17855;BME280;9053;53.358;6.382;2023-02-26T09:17:41;102598.59;;;5.33;76.13
17855;BME280;9053;53.358;6.382;2023-02-26T09:20:12;102598.97;;;5.37;76.16
17855;BME280;9053;53.358;6.382;2023-02-26T09:22:45;102599.75;;;5.36;76.14
17855;BME280;9053;53.358;6.382;2023-02-26T09:25:14;102602.00;;;5.32;75.87
17855;BME280;9053;53.358;6.382;2023-02-26T09:27:44;102602.00;;;5.32;75.75
17855;BME280;9053;53.358;6.382;2023-02-26T09:30:15;102601.97;;;5.42;75.72
17855;BME280;9053;53.358;6.382;2023-02-26T09:32:45;102606.88;;;5.49;75.62
17855;BME280;9053;53.358;6.382;2023-02-26T09:35:17;102609.53;;;5.39;75.40
17855;BME280;9053;53.358;6.382;2023-02-26T09:37:50;102625.84;;;5.26;75.15
17855;BME280;9053;53.358;6.382;2023-02-26T09:40:29;102620.41;;;5.13;74.81
17855;BME280;9053;53.358;6.382;2023-02-26T09:43:20;102630.44;;;4.98;74.78
17855;BME280;9053;53.358;6.382;2023-02-26T09:45:58;102631.25;;;4.87;74.71
17855;BME280;9053;53.358;6.382;2023-02-26T09:48:31;102636.56;;;4.78;74.64
17855;BME280;9053;53.358;6.382;2023-02-26T09:51:04;102647.63;;;4.75;74.61
17855;BME280;9053;53.358;6.382;2023-02-26T09:53:41;102643.09;;;4.83;74.64
17855;BME280;9053;53.358;6.382;2023-02-26T09:56:14;102638.91;;;4.95;74.93
17855;BME280;9053;53.358;6.382;2023-02-26T09:58:45;102649.50;;;5.07;74.93
17855;BME280;9053;53.358;6.382;2023-02-26T10:01:22;102646.09;;;5.18;75.02
17855;BME280;9053;53.358;6.382;2023-02-26T10:04:02;102654.19;;;5.32;75.08
17855;BME280;9053;53.358;6.382;2023-02-26T10:06:42;102665.38;;;5.41;74.94
17855;BME280;9053;53.358;6.382;2023-02-26T10:09:29;102657.28;;;5.48;74.76
17855;BME280;9053;53.358;6.382;2023-02-26T10:12:06;102662.63;;;5.50;74.74
17855;BME280;9053;53.358;6.382;2023-02-26T10:14:41;102655.69;;;5.50;74.71
17855;BME280;9053;53.358;6.382;2023-02-26T10:17:19;102672.28;;;5.51;74.51
17855;BME280;9053;53.358;6.382;2023-02-26T10:19:53;102667.72;;;5.48;74.51
17855;BME280;9053;53.358;6.382;2023-02-26T10:22:30;102672.03;;;5.48;74.45
17855;BME280;9053;53.358;6.382;2023-02-26T10:25:06;102667.56;;;5.47;74.47
17855;BME280;9053;53.358;6.382;2023-02-26T10:27:46;102668.75;;;5.50;74.37
17855;BME280;9053;53.358;6.382;2023-02-26T10:30:25;102664.16;;;5.58;74.49
17855;BME280;9053;53.358;6.382;2023-02-26T10:33:02;102672.91;;;5.58;74.41
17855;BME280;9053;53.358;6.382;2023-02-26T10:35:39;102672.91;;;5.58;74.46
17855;BME280;9053;53.358;6.382;2023-02-26T10:38:14;102672.38;;;5.62;74.44
17855;BME280;9053;53.358;6.382;2023-02-26T10:40:50;102671.31;;;5.71;74.54
17855;BME280;9053;53.358;6.382;2023-02-26T10:43:23;102689.06;;;5.75;74.55
17855;BME280;9053;53.358;6.382;2023-02-26T10:46:11;102685.53;;;5.74;74.41
17855;BME280;9053;53.358;6.382;2023-02-26T10:49:13;102691.03;;;5.77;74.52
17855;BME280;9053;53.358;6.382;2023-02-26T10:51:51;102674.69;;;5.80;74.36
17855;BME280;9053;53.358;6.382;2023-02-26T10:54:26;102685.00;;;5.78;74.37
17855;BME280;9053;53.358;6.382;2023-02-26T10:57:01;102685.00;;;5.78;74.27
17855;BME280;9053;53.358;6.382;2023-02-26T10:59:30;102681.72;;;5.81;74.37
17855;BME280;9053;53.358;6.382;2023-02-26T11:02:01;102690.06;;;5.87;74.21
17855;BME280;9053;53.358;6.382;2023-02-26T11:04:31;102693.59;;;5.88;74.06
17855;BME280;9053;53.358;6.382;2023-02-26T11:07:02;102693.97;;;5.82;74.12
17855;BME280;9053;53.358;6.382;2023-02-26T11:09:36;102687.13;;;5.72;74.05
17855;BME280;9053;53.358;6.382;2023-02-26T11:12:14;102701.84;;;5.72;74.00
17855;BME280;9053;53.358;6.382;2023-02-26T11:14:47;102701.50;;;5.67;73.79
17855;BME280;9053;53.358;6.382;2023-02-26T11:17:20;102705.78;;;5.67;74.03
17855;BME280;9053;53.358;6.382;2023-02-26T11:19:56;102715.19;;;5.64;73.85
17855;BME280;9053;53.358;6.382;2023-02-26T11:22:31;102711.28;;;5.70;73.91
17855;BME280;9053;53.358;6.382;2023-02-26T11:25:03;102723.78;;;5.74;73.79
17855;BME280;9053;53.358;6.382;2023-02-26T11:27:37;102717.25;;;5.79;73.77
17855;BME280;9053;53.358;6.382;2023-02-26T11:30:15;102709.78;;;5.83;73.78
17855;BME280;9053;53.358;6.382;2023-02-26T11:32:51;102712.13;;;5.91;73.90
17855;BME280;9053;53.358;6.382;2023-02-26T11:35:23;102719.16;;;5.92;73.77
17855;BME280;9053;53.358;6.382;2023-02-26T11:37:56;102735.50;;;5.89;73.76
17855;BME280;9053;53.358;6.382;2023-02-26T11:40:35;102721.28;;;5.85;73.67
17855;BME280;9053;53.358;6.382;2023-02-26T11:43:17;102724.31;;;5.80;73.51
17855;BME280;9053;53.358;6.382;2023-02-26T11:45:52;102727.94;;;5.82;73.64
17855;BME280;9053;53.358;6.382;2023-02-26T11:48:25;102718.16;;;5.90;73.66
17855;BME280;9053;53.358;6.382;2023-02-26T11:50:59;102726.75;;;5.99;73.63
17855;BME280;9053;53.358;6.382;2023-02-26T11:53:33;102726.66;;;5.97;73.68
17855;BME280;9053;53.358;6.382;2023-02-26T11:56:08;102717.63;;;5.94;73.72
17855;BME280;9053;53.358;6.382;2023-02-26T11:58:44;102726.00;;;5.90;73.81
17855;BME280;9053;53.358;6.382;2023-02-26T12:01:15;102734.59;;;5.89;73.91
17855;BME280;9053;53.358;6.382;2023-02-26T12:03:48;102718.00;;;5.88;73.91
17855;BME280;9053;53.358;6.382;2023-02-26T12:06:21;102727.16;;;5.83;74.00
17855;BME280;9053;53.358;6.382;2023-02-26T12:08:51;102721.81;;;5.81;73.87
17855;BME280;9053;53.358;6.382;2023-02-26T12:14:36;102724.38;;;5.92;74.08
17855;BME280;9053;53.358;6.382;2023-02-26T12:17:20;102735.25;;;5.96;74.01
17855;BME280;9053;53.358;6.382;2023-02-26T12:19:57;102744.13;;;5.98;74.04
17855;BME280;9053;53.358;6.382;2023-02-26T12:22:46;102727.66;;;5.99;74.06
17855;BME280;9053;53.358;6.382;2023-02-26T12:28:29;102732.66;;;5.96;73.92
17855;BME280;9053;53.358;6.382;2023-02-26T12:31:21;102748.97;;;5.94;73.87
17855;BME280;9053;53.358;6.382;2023-02-26T12:34:10;102725.84;;;5.88;73.87
17855;BME280;9053;53.358;6.382;2023-02-26T12:39:47;102729.13;;;5.96;73.91
17855;BME280;9053;53.358;6.382;2023-02-26T12:42:27;102736.31;;;5.98;73.91
17855;BME280;9053;53.358;6.382;2023-02-26T12:45:11;102732.22;;;6.02;73.76
17855;BME280;9053;53.358;6.382;2023-02-26T12:48:00;102733.41;;;6.05;73.93
17855;BME280;9053;53.358;6.382;2023-02-26T12:50:43;102740.63;;;5.98;73.82
17855;BME280;9053;53.358;6.382;2023-02-26T12:59:20;102746.09;;;5.80;73.83
17855;BME280;9053;53.358;6.382;2023-02-26T13:02:04;102750.91;;;5.86;73.86
17855;BME280;9053;53.358;6.382;2023-02-26T13:05:02;102740.47;;;5.96;74.03
17855;BME280;9053;53.358;6.382;2023-02-26T13:07:50;102741.25;;;6.05;74.08
17855;BME280;9053;53.358;6.382;2023-02-26T13:10:28;102755.22;;;6.06;74.00
17855;BME280;9053;53.358;6.382;2023-02-26T13:13:12;102752.75;;;6.07;74.02
17855;BME280;9053;53.358;6.382;2023-02-26T13:15:54;102738.22;;;6.11;73.98
17855;BME280;9053;53.358;6.382;2023-02-26T13:18:31;102735.38;;;6.08;73.95
17855;BME280;9053;53.358;6.382;2023-02-26T13:21:08;102747.25;;;6.04;73.92
17855;BME280;9053;53.358;6.382;2023-02-26T13:23:46;102737.22;;;5.99;73.80
17855;BME280;9053;53.358;6.382;2023-02-26T13:26:18;102748.56;;;5.99;73.77
17855;BME280;9053;53.358;6.382;2023-02-26T13:28:53;102741.00;;;6.02;73.95
17855;BME280;9053;53.358;6.382;2023-02-26T13:31:27;102739.81;;;5.99;73.73
17855;BME280;9053;53.358;6.382;2023-02-26T13:34:01;102742.56;;;6.00;73.78
17855;BME280;9053;53.358;6.382;2023-02-26T13:36:36;102740.63;;;5.98;73.65
17855;BME280;9053;53.358;6.382;2023-02-26T13:39:17;102753.25;;;5.93;73.57
17855;BME280;9053;53.358;6.382;2023-02-26T13:41:55;102748.81;;;5.82;73.58
17855;BME280;9053;53.358;6.382;2023-02-26T13:44:31;102749.13;;;5.75;73.45
17855;BME280;9053;53.358;6.382;2023-02-26T13:47:23;102743.09;;;5.76;73.71
17855;BME280;9053;53.358;6.382;2023-02-26T13:50:12;102744.41;;;5.81;73.82
17855;BME280;9053;53.358;6.382;2023-02-26T13:52:53;102747.25;;;5.84;73.83
17855;BME280;9053;53.358;6.382;2023-02-26T13:55:45;102753.28;;;5.83;73.91
17855;BME280;9053;53.358;6.382;2023-02-26T13:58:33;102741.00;;;5.82;73.95
17855;BME280;9053;53.358;6.382;2023-02-26T14:01:07;102745.44;;;5.83;73.89
17855;BME280;9053;53.358;6.382;2023-02-26T14:03:43;102743.09;;;5.86;73.87
17855;BME280;9053;53.358;6.382;2023-02-26T14:06:23;102743.31;;;5.89;73.73